createdAt,value
2019-03-12T00:01:25.242Z,2.20
2019-03-12T00:04:07.625Z,2.00
2019-03-12T00:06:49.429Z,2.33
2019-03-12T00:09:31.215Z,2.17
2019-03-12T00:12:13.687Z,3.33
2019-03-12T00:14:55.688Z,3.07
2019-03-12T00:20:37.417Z,2.83
2019-03-12T00:23:20.019Z,3.33
2019-03-12T00:26:02.523Z,2.77
2019-03-12T00:28:44.883Z,3.07
2019-03-12T00:31:26.947Z,2.30
2019-03-12T00:34:09.269Z,2.70
2019-03-12T00:36:51.907Z,2.70
2019-03-12T00:39:33.721Z,2.90
2019-03-12T00:42:15.871Z,2.80
2019-03-12T00:44:57.707Z,3.80
2019-03-12T00:47:39.909Z,2.63
2019-03-12T00:50:21.771Z,3.03
2019-03-12T00:53:04.141Z,2.80
2019-03-12T00:55:46.419Z,3.83
2019-03-12T00:58:29.154Z,4.70
2019-03-12T01:01:11.839Z,3.70
2019-03-12T01:03:54.118Z,3.83
2019-03-12T01:06:36.259Z,4.03
2019-03-12T01:09:18.112Z,2.00
2019-03-12T01:12:00.708Z,4.23
2019-03-12T01:14:42.639Z,2.97
2019-03-12T01:17:24.730Z,6.03
2019-03-12T01:23:07.106Z,2.00
2019-03-12T01:25:48.964Z,2.00
2019-03-12T01:28:31.331Z,2.00
2019-03-12T01:31:14.173Z,4.20
2019-03-12T01:33:56.875Z,2.47
2019-03-12T01:36:39.411Z,1.60
2019-03-12T01:39:21.240Z,1.70
2019-03-12T01:42:03.476Z,8.60
2019-03-12T01:44:45.903Z,3.27
2019-03-12T01:47:28.108Z,2.87
2019-03-12T01:50:10.187Z,3.17
2019-03-12T01:52:53.076Z,2.30
2019-03-12T01:55:35.412Z,2.53
2019-03-12T01:58:18.247Z,3.10
2019-03-12T02:01:00.263Z,2.87
2019-03-12T02:03:42.346Z,3.73
2019-03-12T02:06:24.623Z,1.60
2019-03-12T02:09:34.578Z,3.40
2019-03-12T02:12:16.691Z,1.57
2019-03-12T02:14:59.023Z,2.70
2019-03-12T02:17:40.891Z,1.30
2019-03-12T02:20:22.599Z,3.47
2019-03-12T02:23:05.243Z,1.65
2019-03-12T02:25:47.450Z,2.20
2019-03-12T02:28:29.599Z,1.70
2019-03-12T02:31:11.377Z,2.83
2019-03-12T02:33:54.096Z,1.90
2019-03-12T02:36:36.219Z,2.87
2019-03-12T02:39:18.304Z,1.30
2019-03-12T02:42:00.416Z,2.00
2019-03-12T02:44:42.836Z,2.23
2019-03-12T02:47:25.308Z,2.77
2019-03-12T02:50:07.575Z,3.27
2019-03-12T02:52:50.220Z,2.20
2019-03-12T02:58:43.120Z,2.00
2019-03-12T03:01:25.655Z,2.63
2019-03-12T03:04:09.083Z,12.87
2019-03-12T03:10:26.181Z,4.07
2019-03-12T03:13:08.259Z,2.20
2019-03-12T03:15:51.196Z,3.10
2019-03-12T03:21:18.947Z,3.60
2019-03-12T03:24:01.640Z,2.83
2019-03-12T03:26:44.301Z,2.00
2019-03-12T03:29:27.072Z,1.43
2019-03-12T03:32:09.477Z,3.47
2019-03-12T03:34:52.099Z,2.30
2019-03-12T03:37:34.325Z,5.27
2019-03-12T03:40:19.276Z,2.27
2019-03-12T03:43:01.427Z,2.37
2019-03-12T03:45:43.993Z,2.53
2019-03-12T03:48:26.377Z,11.70
2019-03-12T03:51:08.241Z,2.13
2019-03-12T03:53:50.681Z,2.17
2019-03-12T03:56:32.711Z,2.93
2019-03-12T03:59:14.703Z,4.63
2019-03-12T04:01:57.220Z,4.07
2019-03-12T04:04:39.553Z,6.97
2019-03-12T04:07:21.601Z,2.13
2019-03-12T04:10:03.474Z,2.37
2019-03-12T04:15:30.945Z,3.87
2019-03-12T04:18:13.439Z,2.67
2019-03-12T04:20:55.640Z,1.83
2019-03-12T04:23:38.161Z,4.17
2019-03-12T04:26:20.744Z,2.80
2019-03-12T04:29:02.534Z,1.97
2019-03-12T04:31:45.308Z,7.03
2019-03-12T04:34:27.738Z,2.43
2019-03-12T04:37:09.802Z,4.17
2019-03-12T04:39:52.216Z,1.90
2019-03-12T04:42:34.253Z,3.10
2019-03-12T04:45:16.051Z,4.70
2019-03-12T04:47:58.108Z,2.97
2019-03-12T04:50:40.762Z,2.20
2019-03-12T04:53:23.395Z,2.30
2019-03-12T04:56:05.239Z,2.60
2019-03-12T04:58:47.427Z,5.07
2019-03-12T05:01:30.038Z,4.53
2019-03-12T05:04:11.843Z,1.90
2019-03-12T05:06:53.947Z,9.90
2019-03-12T05:09:36.433Z,2.70
2019-03-12T05:12:18.294Z,4.80
2019-03-12T05:15:00.739Z,3.40
2019-03-12T05:17:43.198Z,5.17
2019-03-12T05:20:25.928Z,5.50
2019-03-12T05:23:07.985Z,4.03
2019-03-12T05:25:50.107Z,1.97
2019-03-12T05:28:32.278Z,12.97
2019-03-12T05:31:14.463Z,3.77
2019-03-12T05:33:56.223Z,4.47
2019-03-12T05:36:38.195Z,6.13
2019-03-12T05:39:20.511Z,10.80
2019-03-12T05:42:03.256Z,9.03
2019-03-12T05:44:45.071Z,4.97
2019-03-12T05:47:27.339Z,4.80
2019-03-12T05:50:19.167Z,2.57
2019-03-12T05:53:00.934Z,8.90
2019-03-12T05:55:42.651Z,2.23
2019-03-12T05:58:25.187Z,4.27
2019-03-12T06:01:07.280Z,4.90
2019-03-12T06:03:49.315Z,3.53
2019-03-12T06:06:31.464Z,19.27
2019-03-12T06:12:26.199Z,4.20
2019-03-12T06:15:08.591Z,4.17
2019-03-12T06:17:50.319Z,4.77
2019-03-12T06:20:32.859Z,22.03
2019-03-12T06:23:15.960Z,27.33
2019-03-12T06:25:58.449Z,3.10
2019-03-12T06:28:41.184Z,8.27
2019-03-12T06:35:17.135Z,2.30
2019-03-12T06:41:55.872Z,3.90
2019-03-12T06:51:33.879Z,8.77
2019-03-12T06:54:34.827Z,3.87
2019-03-12T07:00:56.047Z,15.97
2019-03-12T07:03:57.319Z,3.37
2019-03-12T07:07:01.014Z,3.83
2019-03-12T07:10:01.790Z,4.93
2019-03-12T07:13:02.538Z,8.33
2019-03-12T07:16:04.124Z,3.77
2019-03-12T07:22:11.076Z,5.37
2019-03-12T07:28:10.604Z,4.40
2019-03-12T07:31:14.920Z,6.50
2019-03-12T07:34:49.167Z,5.50
2019-03-12T07:38:06.131Z,3.03
2019-03-12T07:44:24.709Z,3.57
2019-03-12T07:50:13.051Z,3.67
2019-03-12T07:56:20.316Z,2.20
2019-03-12T07:59:12.715Z,3.50
2019-03-12T08:05:53.355Z,1.50
2019-03-12T08:08:57.020Z,2.93
2019-03-12T08:15:22.644Z,3.23
2019-03-12T08:21:22.299Z,3.70
2019-03-12T08:27:11.199Z,6.90
2019-03-12T08:30:12.957Z,3.30
2019-03-12T08:32:56.122Z,5.10
2019-03-12T08:38:46.353Z,6.47
2019-03-12T08:41:28.833Z,5.17
2019-03-12T08:53:59.452Z,5.57
2019-03-12T09:00:03.232Z,4.27
2019-03-12T09:09:11.971Z,4.00
2019-03-12T09:12:33.367Z,13.33
2019-03-12T09:15:34.549Z,4.10
2019-03-12T09:19:06.005Z,3.90
2019-03-12T09:22:07.519Z,3.43
2019-03-12T09:25:11.795Z,4.10
2019-03-12T09:28:34.432Z,3.10
2019-03-12T09:31:37.121Z,6.50
2019-03-12T09:41:13.058Z,6.70
2019-03-12T09:44:19.893Z,5.23
2019-03-12T09:47:21.294Z,3.37
2019-03-12T09:50:28.949Z,5.20
2019-03-12T09:53:51.192Z,3.10
2019-03-12T09:56:52.577Z,5.17
2019-03-12T10:02:54.517Z,4.60
2019-03-12T10:05:47.171Z,4.60
2019-03-12T10:09:10.468Z,5.93
2019-03-12T10:12:31.140Z,4.43
2019-03-12T10:15:35.563Z,4.53
2019-03-12T10:18:56.028Z,5.00
2019-03-12T10:22:16.147Z,6.53
2019-03-12T10:28:36.247Z,5.40
2019-03-12T10:31:37.932Z,2.57
2019-03-12T10:34:41.120Z,4.07
2019-03-12T10:40:31.231Z,4.43
2019-03-12T10:43:38.263Z,3.83
2019-03-12T10:46:44.195Z,6.03
2019-03-12T10:49:36.982Z,5.53
2019-03-12T10:52:10.487Z,5.07
2019-03-12T10:54:52.551Z,5.80
2019-03-12T10:57:34.516Z,6.07
2019-03-12T11:00:16.655Z,4.40
2019-03-12T11:05:48.808Z,5.90
2019-03-12T11:08:31.468Z,6.53
2019-03-12T11:11:14.048Z,8.33
2019-03-12T11:13:56.616Z,5.10
2019-03-12T11:16:38.308Z,7.90
2019-03-12T11:19:20.487Z,3.30
2019-03-12T11:22:02.584Z,7.20
2019-03-12T11:24:45.182Z,7.23
2019-03-12T11:27:27.697Z,4.27
2019-03-12T11:30:09.643Z,4.93
2019-03-12T11:32:52.183Z,5.10
2019-03-12T11:35:39.165Z,5.07
2019-03-12T11:38:17.853Z,8.60
2019-03-12T11:41:00.172Z,3.47
2019-03-12T11:43:42.547Z,4.27
2019-03-12T11:46:25.029Z,5.37
2019-03-12T11:49:07.556Z,3.22
2019-03-12T11:51:50.153Z,4.13
2019-03-12T11:54:32.530Z,8.23
2019-03-12T11:57:14.521Z,6.30
2019-03-12T11:59:56.505Z,6.63
2019-03-12T12:02:39.651Z,6.13
2019-03-12T12:05:25.424Z,6.97
2019-03-12T12:08:08.301Z,5.40
2019-03-12T12:10:50.214Z,10.37
2019-03-12T12:13:33.123Z,8.20
2019-03-12T12:16:15.610Z,5.13
2019-03-12T12:18:58.308Z,6.10
2019-03-12T12:21:39.871Z,4.77
2019-03-12T12:24:22.631Z,7.20
2019-03-12T12:27:05.035Z,5.37
2019-03-12T12:32:27.371Z,2.77
2019-03-12T12:35:10.779Z,3.47
2019-03-12T12:37:53.214Z,2.63
2019-03-12T12:40:36.031Z,4.23
2019-03-12T12:43:18.515Z,6.70
2019-03-12T12:46:00.479Z,2.50
2019-03-12T12:48:42.647Z,5.97
2019-03-12T12:51:25.299Z,5.27
2019-03-12T12:54:09.741Z,4.13
2019-03-12T13:02:50.638Z,1.47
2019-03-12T13:05:32.495Z,1.50
2019-03-12T13:08:15.443Z,1.63
2019-03-12T13:10:57.971Z,3.87
2019-03-12T13:13:41.129Z,2.00
2019-03-12T13:16:25.428Z,2.90
2019-03-12T13:19:07.029Z,3.87
2019-03-12T13:21:49.586Z,2.63
2019-03-12T13:24:32.223Z,3.30
2019-03-12T13:27:14.275Z,2.83
2019-03-12T13:29:56.142Z,2.80
2019-03-12T13:35:23.237Z,4.67
2019-03-12T13:38:05.099Z,3.27
2019-03-12T13:40:47.936Z,3.77
2019-03-12T13:43:30.443Z,2.77
2019-03-12T13:46:13.949Z,2.67
2019-03-12T13:48:56.853Z,3.50
2019-03-12T13:51:39.692Z,2.93
2019-03-12T13:54:23.048Z,3.57
2019-03-12T13:57:05.165Z,2.60
2019-03-12T13:59:48.052Z,3.87
2019-03-12T14:02:30.571Z,2.90
2019-03-12T14:05:13.274Z,5.10
2019-03-12T14:07:56.819Z,3.67
2019-03-12T14:10:39.352Z,2.90
2019-03-12T14:13:21.293Z,2.77
2019-03-12T14:16:03.423Z,4.37
2019-03-12T14:18:45.188Z,3.73
2019-03-12T14:21:27.490Z,3.70
2019-03-12T14:24:09.347Z,3.33
2019-03-12T14:26:51.762Z,3.73
2019-03-12T14:29:34.009Z,2.10
2019-03-12T14:32:16.420Z,4.17
2019-03-12T14:34:58.223Z,3.03
2019-03-12T14:37:40.695Z,2.67
2019-03-12T14:40:22.926Z,3.47
2019-03-12T14:43:05.492Z,1.93
2019-03-12T14:45:47.375Z,1.63
2019-03-12T14:48:29.624Z,1.40
2019-03-12T14:51:12.279Z,3.07
2019-03-12T14:53:54.575Z,3.03
2019-03-12T14:59:16.495Z,4.03
2019-03-12T15:01:58.430Z,2.60
2019-03-12T15:04:40.598Z,4.60
2019-03-12T15:07:28.859Z,1.40
2019-03-12T15:10:11.071Z,2.10
2019-03-12T15:12:53.855Z,2.30
2019-03-12T15:15:35.936Z,5.33
2019-03-12T15:18:17.871Z,3.03
2019-03-12T15:21:00.422Z,2.70
2019-03-12T15:23:42.903Z,3.40
2019-03-12T15:26:13.326Z,3.10
2019-03-12T15:32:16.539Z,3.83
2019-03-12T15:34:46.935Z,3.13
2019-03-12T15:43:32.884Z,3.03
2019-03-12T15:46:15.027Z,4.17
2019-03-12T15:48:57.499Z,5.37
2019-03-12T15:51:40.215Z,4.83
2019-03-12T15:54:22.683Z,6.40
2019-03-12T15:57:04.751Z,5.87
2019-03-12T15:59:47.299Z,7.93
2019-03-12T16:02:29.252Z,9.53
2019-03-12T16:05:11.598Z,7.17
2019-03-12T16:07:54.254Z,6.30
2019-03-12T16:10:36.759Z,4.80
2019-03-12T16:13:19.059Z,6.07
2019-03-12T16:18:50.295Z,10.23
2019-03-12T16:21:51.567Z,7.87
2019-03-12T16:24:35.778Z,10.60
2019-03-12T16:27:18.019Z,7.33
2019-03-12T16:30:00.468Z,6.23
2019-03-12T16:32:43.007Z,6.80
2019-03-12T16:35:24.765Z,11.23
2019-03-12T16:38:07.244Z,6.50
2019-03-12T16:40:49.209Z,8.33
2019-03-12T16:43:30.955Z,12.73
2019-03-12T16:46:13.500Z,11.57
2019-03-12T16:48:55.522Z,11.37
2019-03-12T16:51:38.219Z,8.77
2019-03-12T16:54:20.287Z,10.13
2019-03-12T16:57:02.849Z,7.07
2019-03-12T16:59:45.500Z,8.50
2019-03-12T17:02:28.008Z,10.20
2019-03-12T17:05:09.988Z,14.40
2019-03-12T17:07:52.543Z,9.70
2019-03-12T17:10:34.445Z,9.10
2019-03-12T17:13:16.615Z,10.47
2019-03-12T17:15:59.141Z,10.33
2019-03-12T17:18:41.382Z,10.53
2019-03-12T17:21:24.025Z,11.77
2019-03-12T17:24:06.175Z,11.23
2019-03-12T17:26:48.643Z,13.70
2019-03-12T17:29:30.447Z,6.57
2019-03-12T17:32:12.238Z,12.47
2019-03-12T17:34:54.255Z,13.37
2019-03-12T17:37:36.630Z,8.53
2019-03-12T17:40:19.282Z,13.03
2019-03-12T17:43:01.187Z,10.67
2019-03-12T17:45:43.215Z,8.67
2019-03-12T17:48:25.859Z,13.23
2019-03-12T17:51:07.979Z,9.63
2019-03-12T17:53:50.430Z,14.43
2019-03-12T17:56:32.435Z,11.70
2019-03-12T17:59:14.214Z,16.43
2019-03-12T18:01:56.543Z,11.13
2019-03-12T18:04:38.571Z,9.30
2019-03-12T18:07:20.733Z,10.03
2019-03-12T18:10:03.375Z,10.47
2019-03-12T18:12:45.555Z,13.73
2019-03-12T18:15:27.995Z,18.63
2019-03-12T18:18:09.796Z,15.97
2019-03-12T18:20:51.964Z,12.57
2019-03-12T18:23:34.438Z,14.67
2019-03-12T18:26:16.247Z,15.13
2019-03-12T18:28:59.447Z,18.73
2019-03-12T18:31:42.030Z,14.50
2019-03-12T18:34:24.114Z,11.03
2019-03-12T18:37:06.586Z,15.47
2019-03-12T18:39:48.679Z,14.03
2019-03-12T18:42:30.915Z,15.83
2019-03-12T18:45:12.767Z,17.10
2019-03-12T18:47:54.618Z,16.73
2019-03-12T18:50:36.887Z,15.70
2019-03-12T18:53:18.651Z,17.00
2019-03-12T18:56:05.323Z,16.50
2019-03-12T19:04:51.828Z,16.20
2019-03-12T19:07:33.723Z,14.03
2019-03-12T19:10:17.068Z,16.27
2019-03-12T19:12:59.583Z,13.77
2019-03-12T19:15:41.623Z,17.90
2019-03-12T19:18:24.064Z,14.97
2019-03-12T19:21:06.587Z,16.73
2019-03-12T19:23:49.212Z,15.00
2019-03-12T19:26:31.356Z,16.17
2019-03-12T19:29:14.011Z,15.60
2019-03-12T19:35:34.895Z,17.67
2019-03-12T19:38:17.194Z,15.30
2019-03-12T19:40:59.099Z,16.60
2019-03-12T19:43:41.623Z,16.70
2019-03-12T19:46:24.091Z,17.27
2019-03-12T19:48:54.576Z,17.43
2019-03-12T19:57:39.287Z,13.80
2019-03-12T20:00:22.126Z,18.30
2019-03-12T20:03:10.776Z,15.67
2019-03-12T20:05:47.704Z,14.97
2019-03-12T20:08:29.927Z,16.50
2019-03-12T20:11:12.179Z,16.37
2019-03-12T20:13:54.823Z,13.47
2019-03-12T20:16:37.159Z,16.67
2019-03-12T20:19:19.603Z,16.57
2019-03-12T20:22:01.696Z,13.90
2019-03-12T20:24:44.334Z,12.90
2019-03-12T20:27:26.251Z,12.17
2019-03-12T20:30:08.323Z,12.20
2019-03-12T20:32:50.713Z,11.20
2019-03-12T20:35:32.722Z,10.67
2019-03-12T20:38:42.269Z,13.33
2019-03-12T20:42:11.822Z,9.63
2019-03-12T20:44:54.683Z,10.17
2019-03-12T20:47:37.290Z,13.43
2019-03-12T20:50:20.018Z,8.10
2019-03-12T20:53:02.291Z,10.97
2019-03-12T20:55:44.866Z,8.97
2019-03-12T20:58:27.460Z,12.17
2019-03-12T21:01:09.197Z,9.07
2019-03-12T21:03:51.700Z,9.90
2019-03-12T21:06:33.470Z,11.23
2019-03-12T21:09:15.243Z,10.27
2019-03-12T21:15:36.636Z,8.77
2019-03-12T21:18:18.575Z,11.17
2019-03-12T21:21:27.525Z,10.83
2019-03-12T21:24:31.069Z,11.07
2019-03-12T21:27:13.763Z,10.90
2019-03-12T21:29:56.338Z,17.33
2019-03-12T21:32:38.609Z,17.27
2019-03-12T21:35:20.575Z,11.77
2019-03-12T21:37:50.959Z,13.40
2019-03-12T21:40:32.744Z,10.93
2019-03-12T21:43:14.675Z,15.43
2019-03-12T21:45:57.271Z,12.33
2019-03-12T21:51:22.935Z,15.73
2019-03-12T21:54:05.140Z,14.70
2019-03-12T21:56:46.910Z,15.73
2019-03-12T21:59:28.650Z,10.73
2019-03-12T22:01:59.066Z,13.17
2019-03-12T22:10:43.998Z,12.87
2019-03-12T22:13:25.775Z,13.87
2019-03-12T22:16:08.171Z,12.80
2019-03-12T22:18:50.687Z,10.47
2019-03-12T22:24:34.168Z,12.97
2019-03-12T22:27:16.331Z,15.50
2019-03-12T22:29:58.709Z,17.57
2019-03-12T22:32:40.983Z,15.57
2019-03-12T22:35:21.775Z,19.27
2019-03-12T22:37:52.215Z,14.50
2019-03-12T22:40:41.786Z,17.73
2019-03-12T22:50:02.931Z,22.90
2019-03-12T22:52:45.475Z,18.47
2019-03-12T22:55:27.475Z,17.07
2019-03-12T22:58:09.327Z,20.13
2019-03-12T23:00:51.923Z,20.73
2019-03-12T23:03:34.400Z,23.90
2019-03-12T23:06:04.822Z,20.50
2019-03-12T23:08:54.311Z,20.87
2019-03-12T23:14:57.728Z,19.47
2019-03-12T23:17:39.927Z,21.30
2019-03-12T23:20:22.039Z,23.17
2019-03-12T23:23:04.335Z,21.53
2019-03-12T23:25:46.459Z,26.50
2019-03-12T23:31:20.967Z,26.17
2019-03-12T23:34:03.417Z,27.07
2019-03-12T23:36:45.283Z,26.13
2019-03-12T23:39:27.637Z,26.23
2019-03-12T23:42:09.714Z,23.27
2019-03-12T23:44:52.351Z,31.33
2019-03-12T23:47:34.340Z,22.00
2019-03-12T23:50:16.574Z,22.07
2019-03-12T23:52:59.831Z,20.10
2019-03-12T23:55:42.531Z,25.10
2019-03-12T23:58:24.863Z,21.53
